Time;durP1;ratioP1;P1;durP2;ratioP2;P2;SDS_P1;SDS_P2;PMS_P1;PMS_P2;Temp;Humidity;BMP_temperature;BMP_pressure;BME280_temperature;BME280_humidity;BME280_pressure;Samples;Min_cycle;Max_cycle;Signal;HPM_P1;HPM_P2
2022/12/12 00:02:10;;;;;;;1.60;1.27;;;;;;;9.64;81.15;95578.47;5127727;27;20209;-72
2022/12/12 00:04:38;;;;;;;2.10;1.00;;;;;;;9.90;79.48;95579.31;5127310;27;20689;-72
2022/12/12 00:07:04;;;;;;;0.90;0.90;;;;;;;9.75;78.95;95583.75;5127577;27;20186;-72
2022/12/12 00:09:32;;;;;;;1.87;1.10;;;;;;;9.81;79.42;95593.69;5127510;27;20198;-72
2022/12/12 00:11:59;;;;;;;1.10;1.00;;;;;;;9.67;79.28;95597.19;5127571;27;20175;-72
2022/12/12 00:14:25;;;;;;;1.30;1.20;;;;;;;9.87;78.86;95607.97;5127390;27;20215;-73
2022/12/12 00:16:52;;;;;;;3.00;1.30;;;;;;;9.95;78.17;95606.53;5127400;27;20191;-73
2022/12/12 00:19:19;;;;;;;1.60;1.50;;;;;;;9.92;77.97;95600.72;5127968;27;20193;-73
2022/12/12 00:21:46;;;;;;;1.80;1.30;;;;;;;9.78;78.33;95609.41;5127018;27;20191;-71
2022/12/12 00:24:13;;;;;;;1.63;1.50;;;;;;;9.98;78.26;95615.84;5127471;27;20225;-73
2022/12/12 00:26:40;;;;;;;3.37;1.40;;;;;;;9.72;77.95;95620.97;5127323;28;20274;-72
2022/12/12 00:29:07;;;;;;;4.00;1.70;;;;;;;9.72;78.79;95620.97;5127560;28;20237;-72
2022/12/12 00:31:34;;;;;;;5.47;3.67;;;;;;;9.33;80.15;95627.88;5126992;28;20183;-72
2022/12/12 00:34:01;;;;;;;3.20;2.30;;;;;;;9.17;82.35;95612.50;5127195;28;20183;-72
2022/12/12 00:36:29;;;;;;;3.90;2.33;;;;;;;9.03;82.83;95625.44;5127358;28;20282;-72
2022/12/12 00:39:36;;;;;;;4.40;2.07;;;;;;;9.02;81.17;95626.38;5127082;28;20179;-73
2022/12/12 00:42:17;;;;;;;2.03;1.83;;;;;;;8.81;81.51;95609.63;5125976;28;20737;-73
2022/12/12 00:44:44;;;;;;;2.10;1.57;;;;;;;8.84;82.17;95627.53;5127185;28;20305;-73
2022/12/12 00:47:11;;;;;;;3.33;1.63;;;;;;;9.36;81.50;95623.31;5127064;28;20202;-72
2022/12/12 00:49:37;;;;;;;2.23;1.63;;;;;;;9.57;80.54;95621.97;5109146;28;20183;-74
2022/12/12 00:52:04;;;;;;;2.77;2.10;;;;;;;9.71;80.40;95621.06;5126728;28;20547;-73
2022/12/12 00:54:31;;;;;;;1.50;1.40;;;;;;;9.60;79.89;95595.91;5127265;28;20593;-72
2022/12/12 00:56:58;;;;;;;1.93;1.70;;;;;;;9.57;80.77;95611.63;5127066;28;20209;-72
2022/12/12 00:59:25;;;;;;;2.37;1.50;;;;;;;9.70;80.70;95612.50;5126875;28;20194;-72
2022/12/12 01:01:52;;;;;;;1.57;1.47;;;;;;;9.49;81.25;95607.88;5127136;28;20191;-72
2022/12/12 01:04:19;;;;;;;2.37;2.17;;;;;;;9.75;80.85;95618.19;5126830;28;20215;-72
2022/12/12 01:06:46;;;;;;;2.57;1.70;;;;;;;9.52;81.45;95602.53;5127479;28;20215;-72
2022/12/12 01:09:13;;;;;;;3.00;1.90;;;;;;;9.80;81.16;95629.06;5126656;28;20673;-72
2022/12/12 01:11:40;;;;;;;1.70;1.60;;;;;;;9.83;80.06;95623.69;5127128;28;20180;-72
2022/12/12 01:14:07;;;;;;;1.97;1.47;;;;;;;9.74;80.92;95613.97;5128098;27;20226;-74
2022/12/12 01:16:34;;;;;;;1.97;1.40;;;;;;;9.77;79.98;95616.31;5130809;27;20187;-73
2022/12/12 01:19:01;;;;;;;2.10;1.70;;;;;;;9.84;79.57;95625.34;5130749;27;20407;-73
2022/12/12 01:21:28;;;;;;;1.97;1.43;;;;;;;9.76;78.25;95631.94;5130606;27;20179;-73
2022/12/12 01:23:55;;;;;;;1.50;1.30;;;;;;;9.90;77.65;95638.78;5112457;27;20234;-74
2022/12/12 01:26:23;;;;;;;2.00;1.57;;;;;;;9.63;77.58;95631.91;5130571;27;20287;-73
2022/12/12 01:28:51;;;;;;;1.70;1.50;;;;;;;9.68;77.17;95645.38;5112299;27;20278;-73
2022/12/12 01:31:19;;;;;;;1.80;1.70;;;;;;;9.66;77.61;95641.22;5130332;27;20198;-74
2022/12/12 01:33:46;;;;;;;1.70;1.60;;;;;;;9.78;75.81;95654.19;5130537;27;20187;-73
2022/12/12 01:36:17;;;;;;;2.03;1.77;;;;;;;9.77;75.96;95664.59;5130286;27;20198;-73
2022/12/12 01:38:46;;;;;;;1.70;1.60;;;;;;;9.75;75.95;95659.53;5130346;27;20207;-73
2022/12/12 01:41:14;;;;;;;1.50;1.40;;;;;;;9.84;75.38;95664.13;5111671;27;20666;-73
2022/12/12 01:43:41;;;;;;;1.60;1.50;;;;;;;9.53;75.64;95663.59;5130023;27;20214;-73
2022/12/12 01:46:38;;;;;;;2.13;1.80;;;;;;;9.42;76.20;95664.28;5130545;27;20806;-73
2022/12/12 01:49:19;;;;;;;2.80;1.77;;;;;;;9.12;77.33;95678.28;5130132;27;20269;-73
2022/12/12 01:51:48;;;;;;;2.60;1.67;;;;;;;9.11;77.35;95663.72;5111746;27;20187;-73
2022/12/12 01:54:22;;;;;;;1.70;1.60;;;;;;;9.44;76.70;95675.34;5131995;27;20238;-73
2022/12/12 01:56:51;;;;;;;1.67;1.57;;;;;;;9.16;77.00;95684.91;5131268;27;20194;-73
2022/12/12 01:59:21;;;;;;;3.00;2.03;;;;;;;9.30;77.94;95684.88;5131397;27;20222;-73
2022/12/12 02:01:49;;;;;;;2.53;1.83;;;;;;;9.44;77.25;95665.00;5130277;27;20183;-73
2022/12/12 02:04:17;;;;;;;2.10;1.80;;;;;;;9.58;77.01;95680.47;5129892;27;20309;-73
2022/12/12 02:06:45;;;;;;;3.23;2.67;;;;;;;9.54;76.16;95675.59;5129686;27;20191;-73
2022/12/12 02:09:14;;;;;;;1.97;1.77;;;;;;;9.24;77.86;95688.69;5129853;27;20191;-73
2022/12/12 02:11:50;;;;;;;3.40;2.10;;;;;;;9.24;77.03;95688.69;5129846;27;20218;-72
2022/12/12 02:14:21;;;;;;;2.60;2.20;;;;;;;9.01;78.39;95684.09;5129660;27;20254;-72
2022/12/12 02:17:08;;;;;;;2.23;2.00;;;;;;;8.98;78.65;95699.78;5111537;27;20662;-72
2022/12/12 02:19:59;;;;;;;2.93;2.00;;;;;;;9.19;77.71;95698.44;5129573;27;20183;-74
2022/12/12 02:22:49;;;;;;;1.60;1.50;;;;;;;9.29;77.62;95709.91;5127816;27;20236;-73
2022/12/12 02:25:56;;;;;;;2.17;1.90;;;;;;;9.46;77.07;95712.25;5110945;27;20242;-73
2022/12/12 02:28:48;;;;;;;2.23;1.97;;;;;;;9.43;76.25;95720.22;5111534;27;20745;-72
2022/12/12 02:31:22;;;;;;;2.20;2.00;;;;;;;9.46;75.09;95722.59;5129258;27;20191;-72
2022/12/12 02:34:28;;;;;;;2.63;1.90;;;;;;;9.41;75.50;95721.22;5129905;27;20197;-71
2022/12/12 02:37:06;;;;;;;1.90;1.80;;;;;;;9.43;75.18;95722.78;5087199;27;20199;-72
2022/12/12 02:39:42;;;;;;;1.97;1.70;;;;;;;9.11;76.76;95726.50;5129067;27;20636;-71
2022/12/12 02:42:20;;;;;;;1.77;1.67;;;;;;;9.17;76.85;95727.91;5110939;27;20273;-72
2022/12/12 02:45:01;;;;;;;1.93;1.80;;;;;;;9.42;76.78;95730.63;5128928;27;20846;-71
2022/12/12 02:47:34;;;;;;;2.43;1.60;;;;;;;9.37;76.73;95730.94;5128879;27;20256;-71
2022/12/12 02:50:12;;;;;;;2.00;1.80;;;;;;;9.50;76.25;95749.09;5128929;27;20203;-72
2022/12/12 02:52:42;;;;;;;2.87;1.70;;;;;;;9.58;75.91;95750.25;5128863;27;20678;-72
2022/12/12 02:55:09;;;;;;;2.33;2.00;;;;;;;9.78;75.52;95760.19;5128658;27;20195;-72
2022/12/12 02:57:40;;;;;;;3.83;2.07;;;;;;;9.85;75.41;95768.34;5128865;27;20571;-72
2022/12/12 03:00:11;;;;;;;1.80;1.70;;;;;;;9.75;76.59;95770.69;5127206;27;20292;-72
2022/12/12 03:09:07;;;;;;;1.87;1.67;;;;;;;9.57;78.03;95760.69;5128728;27;20193;-72
2022/12/12 03:12:04;;;;;;;2.73;2.03;;;;;;;9.55;78.81;95776.28;5128260;27;20203;-72
2022/12/12 03:14:57;;;;;;;2.43;1.77;;;;;;;9.70;78.66;95767.59;5128202;27;20214;-72
2022/12/12 03:17:35;;;;;;;2.90;2.00;;;;;;;9.48;78.75;95767.25;5110127;27;20183;-72
2022/12/12 03:20:18;;;;;;;1.80;1.70;;;;;;;9.65;78.19;95756.69;5128313;27;20194;-73
2022/12/12 03:23:01;;;;;;;3.67;2.20;;;;;;;9.25;77.99;95757.50;5107802;27;20206;-73
2022/12/12 03:25:52;;;;;;;2.30;1.87;;;;;;;9.35;78.55;95757.78;5108981;27;20730;-72
2022/12/12 03:28:28;;;;;;;2.00;1.80;;;;;;;9.61;77.69;95762.16;5105010;27;20187;-73
2022/12/12 03:30:59;;;;;;;4.83;2.40;;;;;;;9.59;77.29;95764.84;5128066;27;20277;-73
2022/12/12 03:33:51;;;;;;;3.47;1.90;;;;;;;9.71;77.11;95777.00;5128025;27;20183;-73
2022/12/12 03:36:24;;;;;;;2.33;2.00;;;;;;;9.80;76.97;95767.84;5114255;27;20199;-73
2022/12/12 03:39:17;;;;;;;2.47;2.27;;;;;;;9.77;76.20;95761.09;5119024;27;20306;-72
2022/12/12 03:41:53;;;;;;;3.00;2.30;;;;;;;9.97;75.86;95766.78;5127813;27;20187;-72
2022/12/12 03:44:25;;;;;;;1.60;1.50;;;;;;;9.81;76.18;95748.78;5127720;27;20705;-72
2022/12/12 03:47:16;;;;;;;2.37;2.00;;;;;;;9.85;75.56;95760.59;5127948;27;20187;-72
2022/12/12 03:50:15;;;;;;;3.07;2.33;;;;;;;9.84;75.42;95759.78;5107238;28;20659;-72
2022/12/12 03:52:53;;;;;;;5.13;2.20;;;;;;;9.81;75.66;95752.22;5036188;28;20198;-73
2022/12/12 03:55:31;;;;;;;3.03;2.30;;;;;;;9.82;75.94;95753.88;5107208;28;20180;-73
2022/12/12 03:58:26;;;;;;;2.80;2.27;;;;;;;9.68;75.45;95753.94;5107041;28;20211;-73
2022/12/12 04:00:56;;;;;;;3.97;3.10;;;;;;;9.67;76.94;95767.78;5107221;28;20581;-72
2022/12/12 04:03:38;;;;;;;7.73;4.73;;;;;;;9.42;77.71;95771.94;5108046;28;20677;-74
2022/12/12 04:06:26;;;;;;;7.27;5.00;;;;;;;9.12;78.42;95766.09;5127754;27;20270;-73
2022/12/12 04:15:46;;;;;;;10.77;7.53;;;;;;;8.42;84.43;95767.66;5043608;28;20301;-71
2022/12/12 04:18:17;;;;;;;5.90;3.60;;;;;;;8.60;84.37;95765.75;5119692;27;20682;-72
2022/12/12 04:24:01;;;;;;;3.30;3.00;;;;;;;9.32;81.72;95776.88;5127016;27;20276;-73
2022/12/12 04:26:48;;;;;;;7.63;4.50;;;;;;;9.49;80.80;95779.25;5127378;27;20269;-73
2022/12/12 04:29:18;;;;;;;8.63;5.40;;;;;;;9.45;80.89;95789.88;5127172;28;20240;-73
2022/12/12 04:31:52;;;;;;;7.43;4.77;;;;;;;9.25;80.87;95783.34;5127024;28;20187;-72
2022/12/12 04:34:48;;;;;;;5.67;4.10;;;;;;;9.41;79.41;95794.41;5108903;28;20663;-72
2022/12/12 04:37:20;;;;;;;3.73;3.20;;;;;;;9.29;79.67;95786.56;5097203;28;20199;-72
2022/12/12 04:39:49;;;;;;;4.77;3.67;;;;;;;9.32;79.37;95791.53;5124737;27;20196;-73
2022/12/12 04:42:21;;;;;;;3.93;3.30;;;;;;;8.89;80.28;95781.19;5122228;28;20203;-72
2022/12/12 04:44:53;;;;;;;4.43;3.03;;;;;;;8.74;80.94;95791.59;5126867;28;20415;-73
2022/12/12 04:47:22;;;;;;;4.03;3.33;;;;;;;8.74;81.07;95799.31;5127401;27;20183;-73
2022/12/12 04:49:51;;;;;;;5.03;3.90;;;;;;;8.83;81.11;95806.53;5131077;27;20190;-72
2022/12/12 04:52:21;;;;;;;4.30;3.17;;;;;;;8.91;80.47;95801.75;5131366;27;20194;-72
2022/12/12 04:54:59;;;;;;;4.73;4.07;;;;;;;9.03;80.58;95817.34;5146882;27;20693;-73
2022/12/12 04:57:38;;;;;;;6.33;4.77;;;;;;;8.94;80.44;95814.50;5131161;27;20183;-72
2022/12/12 05:00:07;;;;;;;6.87;4.43;;;;;;;9.07;79.96;95823.16;5130895;27;20198;-72
2022/12/12 05:02:50;;;;;;;5.33;4.33;;;;;;;9.24;79.35;95820.41;5112122;27;20769;-73
2022/12/12 05:05:19;;;;;;;6.03;4.87;;;;;;;9.16;79.14;95825.22;5110504;28;20216;-73
2022/12/12 05:07:52;;;;;;;4.97;4.47;;;;;;;9.20;78.79;95828.44;5125723;27;20275;-73
2022/12/12 05:10:19;;;;;;;4.87;4.00;;;;;;;9.03;79.03;95816.53;5110118;28;20582;-73
2022/12/12 05:12:50;;;;;;;6.70;5.40;;;;;;;9.09;79.49;95828.25;5109944;28;20669;-73
2022/12/12 05:15:19;;;;;;;8.23;6.33;;;;;;;8.90;79.74;95829.31;5110320;28;20227;-72
2022/12/12 05:17:51;;;;;;;5.83;4.57;;;;;;;8.58;81.04;95835.53;5110118;28;20275;-72
2022/12/12 05:20:18;;;;;;;13.07;7.07;;;;;;;8.31;81.54;95852.53;5110084;28;20176;-72
2022/12/12 05:22:45;;;;;;;7.33;5.10;;;;;;;7.83;82.79;95850.06;5110402;28;20278;-73
2022/12/12 05:25:12;;;;;;;5.43;3.40;;;;;;;7.68;83.84;95859.44;5109815;28;20218;-73
2022/12/12 05:27:39;;;;;;;3.07;2.60;;;;;;;7.80;84.04;95843.31;5109857;28;20236;-72
2022/12/12 05:30:07;;;;;;;3.23;2.93;;;;;;;7.89;83.76;95847.16;5109893;28;20210;-73
2022/12/12 05:32:34;;;;;;;4.43;3.77;;;;;;;7.88;84.04;95855.78;5109561;28;20549;-73
2022/12/12 05:35:01;;;;;;;5.83;3.87;;;;;;;8.10;83.47;95864.84;5109969;28;20795;-72
2022/12/12 05:37:29;;;;;;;6.97;4.90;;;;;;;8.32;82.94;95869.69;5109488;28;20274;-73
2022/12/12 05:39:56;;;;;;;5.93;4.07;;;;;;;8.50;81.78;95860.09;5109963;28;20191;-74
2022/12/12 05:42:23;;;;;;;10.20;5.93;;;;;;;8.45;80.80;95875.00;5109274;28;20201;-73
2022/12/12 05:44:50;;;;;;;7.60;4.93;;;;;;;8.39;81.96;95883.09;5091213;28;20238;-73
2022/12/12 05:47:20;;;;;;;8.20;4.80;;;;;;;8.13;82.54;95863.84;5109299;28;20190;-73
2022/12/12 05:49:47;;;;;;;4.20;3.27;;;;;;;8.07;83.39;95880.50;5109139;28;20184;-72
2022/12/12 05:52:14;;;;;;;7.03;4.00;;;;;;;8.11;83.41;95887.16;5090593;28;20202;-74
2022/12/12 05:54:41;;;;;;;4.73;3.90;;;;;;;7.98;83.60;95878.41;5109438;28;20532;-73
2022/12/12 05:57:08;;;;;;;4.93;3.40;;;;;;;7.89;84.15;95896.94;5126992;27;20185;-72
2022/12/12 05:59:35;;;;;;;4.93;3.40;;;;;;;7.90;84.73;95887.47;5128214;27;20194;-73
2022/12/12 06:02:01;;;;;;;5.63;3.43;;;;;;;7.91;84.35;95899.47;5094316;27;20184;-73
2022/12/12 06:04:29;;;;;;;4.93;4.10;;;;;;;7.99;83.62;95921.34;5129311;27;20221;-73
2022/12/12 06:06:56;;;;;;;8.90;4.13;;;;;;;8.28;83.71;95918.94;5129467;27;20207;-73
2022/12/12 06:09:23;;;;;;;9.00;4.90;;;;;;;8.51;82.54;95916.75;5129486;27;20244;-72
2022/12/12 06:11:50;;;;;;;6.17;5.07;;;;;;;8.64;82.01;95911.75;5129468;27;20232;-72
2022/12/12 06:14:17;;;;;;;10.07;6.53;;;;;;;8.71;81.75;95913.91;5129333;27;20317;-73
2022/12/12 06:16:44;;;;;;;6.23;5.10;;;;;;;8.88;80.91;95925.88;5129207;27;20273;-73
2022/12/12 06:19:11;;;;;;;5.60;4.20;;;;;;;8.47;81.45;95886.88;5129952;27;20690;-73
2022/12/12 06:21:38;;;;;;;7.33;5.90;;;;;;;8.65;81.63;95913.41;5129013;27;20207;-73
2022/12/12 06:24:06;;;;;;;8.27;6.80;;;;;;;8.91;81.07;95936.00;5129383;27;20637;-73
2022/12/12 06:26:33;;;;;;;13.53;8.23;;;;;;;9.05;80.86;95930.06;5129120;27;20215;-73
2022/12/12 06:29:00;;;;;;;7.80;6.13;;;;;;;9.16;80.20;95928.53;5129020;27;20243;-73
2022/12/12 06:31:27;;;;;;;6.97;5.37;;;;;;;9.31;79.81;95927.63;5129128;27;20228;-73
2022/12/12 06:33:54;;;;;;;9.77;6.67;;;;;;;9.25;79.77;95909.06;5104004;27;20227;-73
2022/12/12 06:36:25;;;;;;;9.70;6.93;;;;;;;9.23;79.46;95918.66;5115538;27;20300;-74
2022/12/12 06:38:54;;;;;;;9.57;6.13;;;;;;;9.03;80.47;95914.63;5108193;28;20584;-73
2022/12/12 06:41:22;;;;;;;12.17;9.43;;;;;;;9.02;80.38;95916.41;5123928;27;20195;-73
2022/12/12 06:43:50;;;;;;;16.73;10.43;;;;;;;9.00;80.70;95922.59;5108375;28;20282;-73
2022/12/12 06:46:20;;;;;;;18.57;11.40;;;;;;;9.10;80.86;95926.28;5089740;28;20215;-73
2022/12/12 06:48:48;;;;;;;14.90;9.27;;;;;;;8.98;79.87;95934.75;5089725;28;20768;-73
2022/12/12 06:51:19;;;;;;;26.40;17.60;;;;;;;8.84;80.84;95929.53;5108159;28;20197;-73
2022/12/12 06:53:47;;;;;;;17.73;11.10;;;;;;;9.00;81.00;95946.63;5108292;28;20184;-73
2022/12/12 06:56:17;;;;;;;20.63;11.47;;;;;;;8.99;81.38;95947.56;5107776;28;20315;-73
2022/12/12 06:58:44;;;;;;;16.47;8.93;;;;;;;8.90;80.40;95916.28;5107976;28;20667;-73
2022/12/12 07:01:13;;;;;;;9.40;6.50;;;;;;;9.08;79.60;95935.88;5089582;28;20807;-73
2022/12/12 07:03:40;;;;;;;9.03;6.23;;;;;;;9.11;79.76;95952.97;5107729;28;20191;-72
2022/12/12 07:06:08;;;;;;;9.23;5.80;;;;;;;9.00;79.07;95950.97;5107662;28;20281;-73
2022/12/12 07:08:35;;;;;;;7.07;5.40;;;;;;;9.00;79.58;95956.16;5107674;28;20515;-72
2022/12/12 07:11:13;;;;;;;9.50;6.10;;;;;;;8.97;79.54;95956.31;5107899;28;20633;-73
2022/12/12 07:13:40;;;;;;;6.97;5.30;;;;;;;9.02;79.61;95959.47;5089402;28;20779;-73
2022/12/12 07:16:09;;;;;;;7.43;5.00;;;;;;;8.95;80.08;95963.31;5107971;28;20287;-72
2022/12/12 07:18:36;;;;;;;8.33;5.80;;;;;;;9.10;79.09;95983.09;5106120;28;20188;-73
2022/12/12 07:21:07;;;;;;;21.87;13.57;;;;;;;8.87;80.21;95983.56;5122247;27;20715;-74
2022/12/12 07:23:34;;;;;;;14.23;7.90;;;;;;;8.83;80.67;95980.34;5071868;28;20522;-75
2022/12/12 07:26:08;;;;;;;10.90;7.83;;;;;;;8.81;80.53;95960.69;5107246;28;20216;-74
2022/12/12 07:28:44;;;;;;;27.47;15.47;;;;;;;8.84;80.05;95986.34;5123150;27;20198;-74
2022/12/12 07:31:16;;;;;;;20.83;14.67;;;;;;;8.93;80.28;95985.81;5106953;28;20627;-72
2022/12/12 07:33:44;;;;;;;17.20;8.80;;;;;;;9.06;79.71;95997.13;5107145;28;20191;-74
2022/12/12 07:36:13;;;;;;;9.43;6.47;;;;;;;8.85;80.00;96006.06;5071464;28;20192;-73
2022/12/12 07:38:40;;;;;;;10.53;6.60;;;;;;;9.01;79.69;95999.94;5106721;28;20198;-73
2022/12/12 07:41:10;;;;;;;11.20;7.50;;;;;;;9.10;79.30;96013.25;5106913;28;21088;-72
2022/12/12 07:43:38;;;;;;;12.53;8.30;;;;;;;8.75;80.26;96022.97;5106902;28;20188;-73
2022/12/12 07:46:13;;;;;;;9.80;7.40;;;;;;;8.64;81.02;96020.13;5107213;28;20273;-74
2022/12/12 07:48:41;;;;;;;12.70;8.27;;;;;;;8.62;81.38;96015.06;5088625;28;20180;-73
2022/12/12 07:51:08;;;;;;;15.67;7.83;;;;;;;8.77;81.60;96021.13;5106562;28;20455;-73
2022/12/12 07:53:35;;;;;;;10.33;8.13;;;;;;;8.56;81.98;96033.47;5106530;28;20184;-73
2022/12/12 07:56:11;;;;;;;12.60;9.13;;;;;;;8.42;82.35;96019.63;5106405;28;20201;-73
2022/12/12 07:58:38;;;;;;;16.97;10.60;;;;;;;8.33;83.47;96004.63;5106366;28;20205;-73
2022/12/12 08:01:12;;;;;;;15.60;10.50;;;;;;;8.14;84.38;96023.63;5106380;28;20582;-74
2022/12/12 08:03:43;;;;;;;15.10;10.40;;;;;;;8.02;85.87;96015.69;5088386;28;20240;-74
2022/12/12 08:06:11;;;;;;;13.30;9.20;;;;;;;8.04;85.09;96019.88;5106552;28;20613;-74
2022/12/12 08:08:38;;;;;;;14.23;8.83;;;;;;;8.16;85.65;96023.56;5106228;28;20179;-74
2022/12/12 08:11:10;;;;;;;12.27;9.53;;;;;;;8.26;85.00;96018.78;5106228;28;20195;-74
2022/12/12 08:13:38;;;;;;;11.87;8.93;;;;;;;8.15;85.93;95989.22;5105858;28;20211;-74
2022/12/12 08:16:11;;;;;;;13.43;9.37;;;;;;;8.65;84.57;96037.28;5106632;28;20689;-73
2022/12/12 08:18:38;;;;;;;10.57;8.23;;;;;;;8.85;83.81;96034.44;5087539;28;20291;-73
2022/12/12 08:21:13;;;;;;;8.90;6.83;;;;;;;8.67;84.20;96025.13;5087936;28;20276;-73
2022/12/12 08:23:47;;;;;;;8.37;6.50;;;;;;;8.77;83.36;96027.13;5105324;28;20188;-73
2022/12/12 08:26:16;;;;;;;7.93;5.93;;;;;;;9.05;83.12;96051.44;5105976;28;20222;-73
2022/12/12 08:28:49;;;;;;;10.23;7.10;;;;;;;9.20;82.76;96046.25;5106410;28;20282;-74
2022/12/12 08:31:17;;;;;;;9.40;6.93;;;;;;;9.17;82.42;96032.66;5105982;28;20689;-74
2022/12/12 08:33:53;;;;;;;13.00;9.90;;;;;;;9.41;82.23;96044.19;5112755;28;20205;-74
2022/12/12 08:36:25;;;;;;;13.33;8.87;;;;;;;9.39;82.07;96044.28;5101439;28;20240;-72
2022/12/12 08:38:52;;;;;;;12.07;8.90;;;;;;;9.51;81.66;96053.91;5124087;28;20255;-72
2022/12/12 08:41:21;;;;;;;13.53;9.10;;;;;;;9.56;81.12;96049.28;5126438;28;20191;-73
2022/12/12 08:43:48;;;;;;;12.90;10.20;;;;;;;9.61;80.78;96042.13;5126514;28;20191;-73
2022/12/12 08:46:18;;;;;;;11.90;8.40;;;;;;;9.52;80.44;96047.81;5126196;28;20302;-73
2022/12/12 08:48:46;;;;;;;12.33;8.93;;;;;;;9.49;81.02;96042.84;5126719;28;20685;-73
2022/12/12 08:51:14;;;;;;;10.87;8.63;;;;;;;9.52;81.36;96042.66;5108262;28;20202;-74
2022/12/12 08:53:45;;;;;;;11.80;9.13;;;;;;;9.68;81.35;96040.03;5126285;28;20274;-74
2022/12/12 08:56:13;;;;;;;11.00;8.50;;;;;;;9.55;81.33;96049.41;5126374;28;20191;-74
2022/12/12 08:58:40;;;;;;;10.37;8.27;;;;;;;9.48;81.10;96037.75;5126263;28;20278;-74
2022/12/12 09:01:21;;;;;;;12.20;7.87;;;;;;;9.48;81.04;96028.25;5126462;28;20183;-74
2022/12/12 09:03:50;;;;;;;12.83;7.60;;;;;;;9.63;80.85;96040.28;5108078;28;20214;-73
2022/12/12 09:06:18;;;;;;;12.43;8.07;;;;;;;9.82;80.50;96034.88;5126009;28;20279;-73
2022/12/12 09:08:45;;;;;;;15.60;10.67;;;;;;;9.91;80.36;96042.09;5108212;28;20212;-74
2022/12/12 09:11:12;;;;;;;13.20;8.03;;;;;;;9.90;80.08;96042.16;5126397;28;20215;-74
2022/12/12 09:13:40;;;;;;;15.80;9.33;;;;;;;10.16;79.92;96059.63;5126026;28;20183;-74
2022/12/12 09:16:07;;;;;;;10.00;7.97;;;;;;;10.25;79.11;96053.88;5107690;28;20248;-74
2022/12/12 09:18:36;;;;;;;9.93;6.73;;;;;;;10.48;78.40;96061.91;5107285;28;20191;-75
2022/12/12 09:21:04;;;;;;;11.73;7.93;;;;;;;10.42;78.00;96056.28;5125719;28;20202;-74
2022/12/12 09:23:31;;;;;;;8.33;6.90;;;;;;;10.59;77.19;96049.13;5125587;28;20198;-73
2022/12/12 09:26:04;;;;;;;13.00;7.77;;;;;;;10.66;77.15;96047.00;5126052;28;20298;-74
2022/12/12 09:28:32;;;;;;;8.37;5.50;;;;;;;10.65;77.13;96053.13;5125919;28;20279;-74
2022/12/12 09:30:59;;;;;;;8.60;5.63;;;;;;;10.59;77.61;96046.53;5125997;28;20219;-74
2022/12/12 09:33:26;;;;;;;10.67;7.00;;;;;;;10.96;76.53;96052.88;5125615;27;20283;-72
2022/12/12 09:35:58;;;;;;;7.87;5.30;;;;;;;10.84;75.79;96032.91;5128144;27;20212;-73
2022/12/12 09:38:26;;;;;;;7.53;5.23;;;;;;;11.10;75.71;96050.25;5129569;27;20188;-74
2022/12/12 09:40:54;;;;;;;7.80;5.57;;;;;;;11.23;75.82;96047.69;5129359;27;20192;-74
2022/12/12 09:43:26;;;;;;;10.87;7.23;;;;;;;11.08;76.00;96036.56;5129433;27;20674;-74
2022/12/12 09:45:56;;;;;;;16.03;13.00;;;;;;;11.03;76.84;96042.94;5129036;27;20236;-74
2022/12/12 09:48:39;;;;;;;9.13;7.33;;;;;;;11.02;76.65;96044.72;5129630;27;20192;-74
2022/12/12 09:51:08;;;;;;;12.47;7.30;;;;;;;11.05;77.34;96039.31;5113631;27;20750;-74
2022/12/12 09:53:36;;;;;;;10.23;6.93;;;;;;;11.30;76.47;96042.00;5126626;27;20215;-75
2022/12/12 09:56:05;;;;;;;11.43;8.63;;;;;;;11.38;76.49;96041.50;5129078;27;20228;-74
2022/12/12 09:58:45;;;;;;;14.53;9.13;;;;;;;11.35;75.94;96042.53;5129146;27;20306;-75
2022/12/12 10:01:41;;;;;;;10.27;8.13;;;;;;;11.35;75.99;96033.94;5128748;27;20187;-74
2022/12/12 10:04:19;;;;;;;13.50;8.07;;;;;;;11.35;75.90;96028.75;5111251;27;20308;-73
2022/12/12 10:06:54;;;;;;;9.20;7.47;;;;;;;11.43;76.32;96027.34;5128813;27;20223;-75
2022/12/12 10:09:40;;;;;;;11.30;7.73;;;;;;;11.67;75.04;96029.25;5129060;27;20283;-74
2022/12/12 10:12:13;;;;;;;10.63;7.97;;;;;;;11.73;74.56;96023.66;5110275;27;20193;-74
2022/12/12 10:14:45;;;;;;;7.97;6.93;;;;;;;11.70;74.47;96016.09;5129189;27;20704;-72
2022/12/12 10:17:20;;;;;;;9.50;6.73;;;;;;;11.79;74.70;96018.91;5129062;27;20206;-75
2022/12/12 10:20:03;;;;;;;13.07;8.10;;;;;;;11.93;74.53;96016.22;5128773;27;20187;-75
2022/12/12 10:22:48;;;;;;;9.40;7.30;;;;;;;12.08;73.51;96009.16;5110958;27;20180;-74
2022/12/12 10:25:27;;;;;;;12.77;8.17;;;;;;;12.30;72.64;96022.34;5110381;27;20198;-74
2022/12/12 10:28:03;;;;;;;12.27;7.43;;;;;;;12.22;72.27;96017.66;5128772;27;20187;-72
2022/12/12 10:30:36;;;;;;;9.93;6.30;;;;;;;11.94;72.66;96004.91;5128872;27;20635;-74
2022/12/12 10:33:27;;;;;;;15.23;7.67;;;;;;;12.05;73.09;95996.41;5128856;27;20237;-74
2022/12/12 10:36:02;;;;;;;16.50;8.70;;;;;;;12.28;72.49;95998.28;5128785;27;20183;-74
2022/12/12 10:38:52;;;;;;;19.60;11.10;;;;;;;12.50;72.13;96002.78;5109900;27;20187;-74
2022/12/12 10:41:32;;;;;;;23.17;11.10;;;;;;;12.43;72.81;95989.41;5110374;27;20218;-74
2022/12/12 10:44:08;;;;;;;15.13;9.67;;;;;;;12.53;72.13;95990.41;5128740;27;20192;-73
2022/12/12 10:46:46;;;;;;;14.37;8.73;;;;;;;12.47;72.15;95990.03;5109475;27;20207;-73
2022/12/12 10:49:21;;;;;;;14.47;8.07;;;;;;;12.60;71.69;95996.84;5128540;27;20187;-73
2022/12/12 10:51:50;;;;;;;13.10;8.20;;;;;;;12.52;71.80;95977.53;5128023;27;20249;-73
2022/12/12 10:54:21;;;;;;;15.30;9.03;;;;;;;12.72;71.32;95990.78;5121634;27;21132;-74
2022/12/12 10:57:23;;;;;;;12.20;8.17;;;;;;;12.62;72.20;95986.34;5111766;27;20217;-73
2022/12/12 10:59:52;;;;;;;12.80;7.67;;;;;;;12.60;71.64;95972.63;5107457;28;20310;-73
2022/12/12 11:02:41;;;;;;;22.33;9.20;;;;;;;12.82;70.83;95986.59;5089447;28;20194;-73
2022/12/12 11:05:23;;;;;;;10.83;7.10;;;;;;;12.72;71.93;95966.56;5088524;28;20627;-75
2022/12/12 11:08:17;;;;;;;11.90;6.73;;;;;;;13.01;70.58;95975.69;5107195;28;20286;-74
2022/12/12 11:10:56;;;;;;;12.47;6.87;;;;;;;12.87;70.45;95974.09;5124286;27;20299;-74
2022/12/12 11:13:23;;;;;;;13.53;7.33;;;;;;;12.92;69.95;95972.00;5127416;27;20193;-73
2022/12/12 11:15:51;;;;;;;15.17;7.53;;;;;;;12.99;70.56;95973.22;5127376;27;20184;-73
2022/12/12 11:18:21;;;;;;;16.33;7.97;;;;;;;13.05;69.96;95972.81;5127449;27;20273;-74
2022/12/12 11:21:09;;;;;;;15.57;7.53;;;;;;;13.08;70.40;95969.97;5127008;27;20195;-73
2022/12/12 11:23:39;;;;;;;8.03;6.10;;;;;;;12.68;70.35;95968.56;5128208;27;20265;-75
2022/12/12 11:26:12;;;;;;;9.77;7.30;;;;;;;12.40;70.43;95974.03;5127480;27;20246;-72
2022/12/12 11:28:41;;;;;;;9.63;6.13;;;;;;;12.36;71.90;95962.22;5127889;27;20197;-72
2022/12/12 11:31:17;;;;;;;7.77;5.73;;;;;;;12.30;71.92;95957.47;5109548;27;20571;-71
2022/12/12 11:33:51;;;;;;;6.27;5.13;;;;;;;12.09;72.94;95958.94;5127329;27;20213;-72
2022/12/12 11:36:27;;;;;;;7.83;5.50;;;;;;;12.39;nan;95972.38;5127345;27;20243;-75
2022/12/12 11:38:55;;;;;;;7.87;4.73;;;;;;;12.58;71.01;95961.53;5127407;27;20273;-72
2022/12/12 11:41:22;;;;;;;7.30;4.73;;;;;;;12.90;69.60;95960.06;5127855;27;20274;-73
2022/12/12 11:43:49;;;;;;;8.37;5.03;;;;;;;12.99;68.66;95968.03;5127553;27;20176;-73
2022/12/12 11:46:18;;;;;;;9.07;4.53;;;;;;;13.10;67.05;95963.84;5127440;27;20255;-72
2022/12/12 11:48:55;;;;;;;9.23;5.40;;;;;;;13.25;66.33;95970.53;5127208;27;20280;-71
2022/12/12 11:51:38;;;;;;;14.07;9.00;;;;;;;13.26;66.73;95960.00;5108598;27;20675;-71
2022/12/12 11:54:23;;;;;;;8.03;4.73;;;;;;;13.02;66.69;95956.59;5127449;27;20190;-71
2022/12/12 11:57:16;;;;;;;9.07;5.23;;;;;;;13.05;66.84;95957.22;5126576;27;20710;-72
2022/12/12 11:59:46;;;;;;;13.60;6.67;;;;;;;13.25;66.86;95950.53;5123438;27;20206;-72
2022/12/12 12:02:28;;;;;;;9.83;6.30;;;;;;;13.41;65.85;95956.28;5127432;27;20190;-72
2022/12/12 12:05:11;;;;;;;8.90;6.43;;;;;;;13.42;64.80;95938.91;5108473;27;20247;-73
2022/12/12 12:08:06;;;;;;;6.20;5.07;;;;;;;13.45;64.21;95939.53;5127326;27;20221;-73
2022/12/12 12:10:51;;;;;;;11.00;6.37;;;;;;;13.41;63.83;95937.25;5127111;27;20194;-73
2022/12/12 12:13:24;;;;;;;21.13;7.40;;;;;;;13.32;63.30;95943.13;5127314;27;20601;-73
2022/12/12 12:16:06;;;;;;;14.57;7.13;;;;;;;13.23;63.34;95933.41;5127135;27;20184;-75
2022/12/12 12:18:44;;;;;;;16.80;7.60;;;;;;;13.26;62.85;95943.56;5108992;27;20193;-71
2022/12/12 12:21:28;;;;;;;14.07;6.80;;;;;;;13.27;62.83;95948.66;5127096;27;20182;-73